sensor_id;sensor_type;location;lat;lon;timestamp;P1;durP1;ratioP1;P2;durP2;ratioP2
40555;SDS011;26250;45.422;11.100;2022-08-21T00:00:08;2.80;;;1.60;;
40555;SDS011;26250;45.422;11.100;2022-08-21T00:02:44;1.50;;;1.40;;
40555;SDS011;26250;45.422;11.100;2022-08-21T00:05:21;2.27;;;1.50;;
40555;SDS011;26250;45.422;11.100;2022-08-21T00:07:49;11.25;;;1.30;;
40555;SDS011;26250;45.422;11.100;2022-08-21T00:10:16;2.33;;;1.55;;
40555;SDS011;26250;45.422;11.100;2022-08-21T00:12:44;3.88;;;1.45;;
40555;SDS011;26250;45.422;11.100;2022-08-21T00:15:13;2.15;;;1.20;;
40555;SDS011;26250;45.422;11.100;2022-08-21T00:17:43;2.90;;;1.73;;
40555;SDS011;26250;45.422;11.100;2022-08-21T00:20:11;4.22;;;1.55;;
40555;SDS011;26250;45.422;11.100;2022-08-21T00:22:40;2.88;;;1.30;;
40555;SDS011;26250;45.422;11.100;2022-08-21T00:25:08;1.60;;;1.50;;
40555;SDS011;26250;45.422;11.100;2022-08-21T00:27:36;4.50;;;1.90;;
40555;SDS011;26250;45.422;11.100;2022-08-21T00:30:04;6.95;;;2.30;;
40555;SDS011;26250;45.422;11.100;2022-08-21T00:32:32;4.28;;;1.90;;
40555;SDS011;26250;45.422;11.100;2022-08-21T00:35:00;3.05;;;1.63;;
40555;SDS011;26250;45.422;11.100;2022-08-21T00:37:26;3.05;;;1.73;;
40555;SDS011;26250;45.422;11.100;2022-08-21T00:39:56;4.38;;;2.28;;
40555;SDS011;26250;45.422;11.100;2022-08-21T00:42:23;4.03;;;2.15;;
40555;SDS011;26250;45.422;11.100;2022-08-21T00:44:50;3.30;;;1.80;;
40555;SDS011;26250;45.422;11.100;2022-08-21T00:47:17;2.75;;;1.40;;
40555;SDS011;26250;45.422;11.100;2022-08-21T00:49:45;3.17;;;1.60;;
40555;SDS011;26250;45.422;11.100;2022-08-21T00:52:14;2.03;;;1.52;;
40555;SDS011;26250;45.422;11.100;2022-08-21T00:54:45;1.60;;;1.50;;
40555;SDS011;26250;45.422;11.100;2022-08-21T00:57:14;3.00;;;1.90;;
40555;SDS011;26250;45.422;11.100;2022-08-21T00:59:50;2.33;;;1.70;;
40555;SDS011;26250;45.422;11.100;2022-08-21T01:02:19;2.67;;;2.10;;
40555;SDS011;26250;45.422;11.100;2022-08-21T01:04:46;4.78;;;1.95;;
40555;SDS011;26250;45.422;11.100;2022-08-21T01:07:14;4.00;;;2.13;;
40555;SDS011;26250;45.422;11.100;2022-08-21T01:09:41;2.05;;;1.85;;
40555;SDS011;26250;45.422;11.100;2022-08-21T01:12:09;1.73;;;1.50;;
40555;SDS011;26250;45.422;11.100;2022-08-21T01:14:37;2.17;;;1.67;;
40555;SDS011;26250;45.422;11.100;2022-08-21T01:17:06;1.83;;;1.70;;
40555;SDS011;26250;45.422;11.100;2022-08-21T01:19:34;4.47;;;1.85;;
40555;SDS011;26250;45.422;11.100;2022-08-21T01:22:01;1.73;;;1.60;;
40555;SDS011;26250;45.422;11.100;2022-08-21T01:24:28;3.25;;;1.70;;
40555;SDS011;26250;45.422;11.100;2022-08-21T01:26:58;2.20;;;1.75;;
40555;SDS011;26250;45.422;11.100;2022-08-21T01:29:29;4.53;;;2.03;;
40555;SDS011;26250;45.422;11.100;2022-08-21T01:32:08;7.85;;;1.95;;
40555;SDS011;26250;45.422;11.100;2022-08-21T01:34:38;4.55;;;2.13;;
40555;SDS011;26250;45.422;11.100;2022-08-21T01:37:07;3.95;;;1.88;;
40555;SDS011;26250;45.422;11.100;2022-08-21T01:39:35;2.55;;;1.70;;
40555;SDS011;26250;45.422;11.100;2022-08-21T01:42:03;3.70;;;2.08;;
40555;SDS011;26250;45.422;11.100;2022-08-21T01:44:31;2.65;;;1.98;;
40555;SDS011;26250;45.422;11.100;2022-08-21T01:46:59;4.22;;;2.55;;
40555;SDS011;26250;45.422;11.100;2022-08-21T01:49:27;3.88;;;2.80;;
40555;SDS011;26250;45.422;11.100;2022-08-21T01:51:54;6.28;;;2.28;;
40555;SDS011;26250;45.422;11.100;2022-08-21T01:54:21;6.40;;;2.42;;
40555;SDS011;26250;45.422;11.100;2022-08-21T01:56:49;5.18;;;2.08;;
40555;SDS011;26250;45.422;11.100;2022-08-21T01:59:18;3.38;;;2.30;;
40555;SDS011;26250;45.422;11.100;2022-08-21T02:01:46;3.13;;;2.20;;
40555;SDS011;26250;45.422;11.100;2022-08-21T02:04:13;3.63;;;1.95;;
40555;SDS011;26250;45.422;11.100;2022-08-21T02:06:40;3.50;;;2.60;;
40555;SDS011;26250;45.422;11.100;2022-08-21T02:09:09;3.33;;;2.25;;
40555;SDS011;26250;45.422;11.100;2022-08-21T02:11:37;2.63;;;2.42;;
40555;SDS011;26250;45.422;11.100;2022-08-21T02:14:08;4.78;;;2.40;;
40555;SDS011;26250;45.422;11.100;2022-08-21T02:16:39;6.07;;;1.97;;
40555;SDS011;26250;45.422;11.100;2022-08-21T02:19:08;1.98;;;1.77;;
40555;SDS011;26250;45.422;11.100;2022-08-21T02:21:35;2.05;;;1.73;;
40555;SDS011;26250;45.422;11.100;2022-08-21T02:24:02;6.93;;;1.95;;
40555;SDS011;26250;45.422;11.100;2022-08-21T02:26:29;2.97;;;1.63;;
40555;SDS011;26250;45.422;11.100;2022-08-21T02:28:56;3.03;;;1.75;;
40555;SDS011;26250;45.422;11.100;2022-08-21T02:31:23;6.15;;;2.00;;
40555;SDS011;26250;45.422;11.100;2022-08-21T02:33:50;2.58;;;1.80;;
40555;SDS011;26250;45.422;11.100;2022-08-21T02:36:18;2.35;;;1.27;;
40555;SDS011;26250;45.422;11.100;2022-08-21T02:38:45;5.00;;;1.73;;
40555;SDS011;26250;45.422;11.100;2022-08-21T02:41:14;3.33;;;1.95;;
40555;SDS011;26250;45.422;11.100;2022-08-21T02:43:43;3.13;;;2.05;;
40555;SDS011;26250;45.422;11.100;2022-08-21T02:46:11;2.75;;;1.33;;
40555;SDS011;26250;45.422;11.100;2022-08-21T02:48:40;2.15;;;1.88;;
40555;SDS011;26250;45.422;11.100;2022-08-21T02:51:12;5.05;;;1.90;;
40555;SDS011;26250;45.422;11.100;2022-08-21T02:53:42;2.70;;;1.77;;
40555;SDS011;26250;45.422;11.100;2022-08-21T02:56:10;1.95;;;1.80;;
40555;SDS011;26250;45.422;11.100;2022-08-21T02:58:44;1.90;;;1.63;;
40555;SDS011;26250;45.422;11.100;2022-08-21T03:01:14;4.85;;;2.30;;
40555;SDS011;26250;45.422;11.100;2022-08-21T03:03:43;3.22;;;1.60;;
40555;SDS011;26250;45.422;11.100;2022-08-21T03:06:12;3.42;;;1.80;;
40555;SDS011;26250;45.422;11.100;2022-08-21T03:08:41;2.45;;;1.70;;
40555;SDS011;26250;45.422;11.100;2022-08-21T03:11:11;4.95;;;1.48;;
40555;SDS011;26250;45.422;11.100;2022-08-21T03:13:40;2.30;;;1.55;;
40555;SDS011;26250;45.422;11.100;2022-08-21T03:16:08;1.73;;;1.50;;
40555;SDS011;26250;45.422;11.100;2022-08-21T03:18:35;2.15;;;1.60;;
40555;SDS011;26250;45.422;11.100;2022-08-21T03:21:05;3.08;;;2.15;;
40555;SDS011;26250;45.422;11.100;2022-08-21T03:23:32;1.90;;;1.45;;
40555;SDS011;26250;45.422;11.100;2022-08-21T03:25:59;3.70;;;1.67;;
40555;SDS011;26250;45.422;11.100;2022-08-21T03:28:26;1.90;;;1.65;;
40555;SDS011;26250;45.422;11.100;2022-08-21T03:30:54;6.18;;;2.17;;
40555;SDS011;26250;45.422;11.100;2022-08-21T03:33:21;3.10;;;1.55;;
40555;SDS011;26250;45.422;11.100;2022-08-21T03:36:07;4.55;;;1.73;;
40555;SDS011;26250;45.422;11.100;2022-08-21T03:38:35;4.82;;;1.75;;
40555;SDS011;26250;45.422;11.100;2022-08-21T03:41:04;1.50;;;1.40;;
40555;SDS011;26250;45.422;11.100;2022-08-21T03:43:33;2.13;;;1.48;;
40555;SDS011;26250;45.422;11.100;2022-08-21T03:46:01;3.22;;;1.58;;
40555;SDS011;26250;45.422;11.100;2022-08-21T03:48:29;4.15;;;1.73;;
40555;SDS011;26250;45.422;11.100;2022-08-21T03:50:56;8.15;;;1.85;;
40555;SDS011;26250;45.422;11.100;2022-08-21T03:53:24;2.67;;;1.40;;
40555;SDS011;26250;45.422;11.100;2022-08-21T03:55:51;2.50;;;1.50;;
40555;SDS011;26250;45.422;11.100;2022-08-21T03:58:22;7.85;;;1.73;;
40555;SDS011;26250;45.422;11.100;2022-08-21T04:00:51;2.80;;;1.35;;
40555;SDS011;26250;45.422;11.100;2022-08-21T04:03:20;3.03;;;1.73;;
40555;SDS011;26250;45.422;11.100;2022-08-21T04:05:47;5.75;;;1.33;;
40555;SDS011;26250;45.422;11.100;2022-08-21T04:08:15;4.07;;;1.40;;
40555;SDS011;26250;45.422;11.100;2022-08-21T04:10:45;2.03;;;1.55;;
40555;SDS011;26250;45.422;11.100;2022-08-21T04:13:14;3.35;;;1.50;;
40555;SDS011;26250;45.422;11.100;2022-08-21T04:15:41;5.88;;;1.75;;
40555;SDS011;26250;45.422;11.100;2022-08-21T04:18:09;3.22;;;1.48;;
40555;SDS011;26250;45.422;11.100;2022-08-21T04:20:36;4.93;;;1.70;;
40555;SDS011;26250;45.422;11.100;2022-08-21T04:23:04;3.25;;;1.90;;
40555;SDS011;26250;45.422;11.100;2022-08-21T04:25:31;3.03;;;1.38;;
40555;SDS011;26250;45.422;11.100;2022-08-21T04:27:58;1.60;;;1.33;;
40555;SDS011;26250;45.422;11.100;2022-08-21T04:30:25;2.17;;;1.40;;
40555;SDS011;26250;45.422;11.100;2022-08-21T04:32:54;3.65;;;1.40;;
40555;SDS011;26250;45.422;11.100;2022-08-21T04:35:24;1.95;;;1.30;;
40555;SDS011;26250;45.422;11.100;2022-08-21T04:37:52;1.85;;;1.55;;
40555;SDS011;26250;45.422;11.100;2022-08-21T04:40:19;1.90;;;1.50;;
40555;SDS011;26250;45.422;11.100;2022-08-21T04:42:49;1.27;;;1.17;;
40555;SDS011;26250;45.422;11.100;2022-08-21T04:45:38;7.97;;;2.90;;
40555;SDS011;26250;45.422;11.100;2022-08-21T04:48:08;4.47;;;1.40;;
40555;SDS011;26250;45.422;11.100;2022-08-21T04:53:13;1.83;;;1.17;;
40555;SDS011;26250;45.422;11.100;2022-08-21T04:55:54;7.40;;;1.50;;
40555;SDS011;26250;45.422;11.100;2022-08-21T04:58:22;3.35;;;1.27;;
40555;SDS011;26250;45.422;11.100;2022-08-21T05:00:53;2.85;;;1.10;;
40555;SDS011;26250;45.422;11.100;2022-08-21T05:03:22;5.28;;;2.00;;
40555;SDS011;26250;45.422;11.100;2022-08-21T05:05:49;3.58;;;1.70;;
40555;SDS011;26250;45.422;11.100;2022-08-21T05:08:17;2.60;;;1.00;;
40555;SDS011;26250;45.422;11.100;2022-08-21T05:10:47;4.57;;;1.38;;
40555;SDS011;26250;45.422;11.100;2022-08-21T05:13:14;3.70;;;1.42;;
40555;SDS011;26250;45.422;11.100;2022-08-21T05:15:42;11.25;;;1.48;;
40555;SDS011;26250;45.422;11.100;2022-08-21T05:18:09;12.88;;;1.73;;
40555;SDS011;26250;45.422;11.100;2022-08-21T05:20:36;3.65;;;1.60;;
40555;SDS011;26250;45.422;11.100;2022-08-21T05:23:10;2.08;;;1.15;;
40555;SDS011;26250;45.422;11.100;2022-08-21T05:25:38;2.15;;;1.08;;
40555;SDS011;26250;45.422;11.100;2022-08-21T05:28:07;3.22;;;1.17;;
40555;SDS011;26250;45.422;11.100;2022-08-21T05:30:34;1.65;;;1.25;;
40555;SDS011;26250;45.422;11.100;2022-08-21T05:33:03;1.67;;;0.88;;
40555;SDS011;26250;45.422;11.100;2022-08-21T05:35:32;2.17;;;1.25;;
40555;SDS011;26250;45.422;11.100;2022-08-21T05:37:59;3.50;;;1.50;;
40555;SDS011;26250;45.422;11.100;2022-08-21T05:40:27;4.10;;;1.65;;
40555;SDS011;26250;45.422;11.100;2022-08-21T05:42:54;2.65;;;1.58;;
40555;SDS011;26250;45.422;11.100;2022-08-21T05:45:22;1.27;;;1.00;;
40555;SDS011;26250;45.422;11.100;2022-08-21T05:48:21;2.45;;;1.25;;
40555;SDS011;26250;45.422;11.100;2022-08-21T05:50:50;6.80;;;1.70;;
40555;SDS011;26250;45.422;11.100;2022-08-21T05:53:19;3.50;;;1.80;;
40555;SDS011;26250;45.422;11.100;2022-08-21T05:55:48;1.27;;;1.15;;
40555;SDS011;26250;45.422;11.100;2022-08-21T05:58:19;3.00;;;1.17;;
40555;SDS011;26250;45.422;11.100;2022-08-21T06:00:49;1.38;;;1.05;;
40555;SDS011;26250;45.422;11.100;2022-08-21T06:03:18;4.03;;;1.00;;
40555;SDS011;26250;45.422;11.100;2022-08-21T06:05:48;7.13;;;1.02;;
40555;SDS011;26250;45.422;11.100;2022-08-21T06:08:15;3.10;;;1.40;;
40555;SDS011;26250;45.422;11.100;2022-08-21T06:10:43;1.20;;;1.10;;
40555;SDS011;26250;45.422;11.100;2022-08-21T06:13:11;4.22;;;1.38;;
40555;SDS011;26250;45.422;11.100;2022-08-21T06:15:39;4.15;;;2.28;;
40555;SDS011;26250;45.422;11.100;2022-08-21T06:18:06;2.35;;;1.27;;
40555;SDS011;26250;45.422;11.100;2022-08-21T06:20:33;1.70;;;1.15;;
40555;SDS011;26250;45.422;11.100;2022-08-21T06:23:00;15.25;;;1.48;;
40555;SDS011;26250;45.422;11.100;2022-08-21T06:25:28;2.38;;;1.02;;
40555;SDS011;26250;45.422;11.100;2022-08-21T06:28:05;9.80;;;1.25;;
40555;SDS011;26250;45.422;11.100;2022-08-21T06:30:34;4.72;;;1.00;;
40555;SDS011;26250;45.422;11.100;2022-08-21T06:33:02;4.47;;;1.42;;
40555;SDS011;26250;45.422;11.100;2022-08-21T06:35:29;7.65;;;1.35;;
40555;SDS011;26250;45.422;11.100;2022-08-21T06:37:56;5.47;;;1.85;;
40555;SDS011;26250;45.422;11.100;2022-08-21T06:40:24;6.03;;;2.50;;
40555;SDS011;26250;45.422;11.100;2022-08-21T06:42:55;10.80;;;2.35;;
40555;SDS011;26250;45.422;11.100;2022-08-21T06:45:26;12.40;;;2.97;;
40555;SDS011;26250;45.422;11.100;2022-08-21T06:47:57;15.85;;;3.40;;
40555;SDS011;26250;45.422;11.100;2022-08-21T06:50:24;7.15;;;3.28;;
40555;SDS011;26250;45.422;11.100;2022-08-21T06:52:58;9.98;;;3.53;;
40555;SDS011;26250;45.422;11.100;2022-08-21T06:55:31;6.25;;;3.05;;
40555;SDS011;26250;45.422;11.100;2022-08-21T06:57:58;7.57;;;3.03;;
40555;SDS011;26250;45.422;11.100;2022-08-21T07:00:25;8.77;;;3.22;;
40555;SDS011;26250;45.422;11.100;2022-08-21T07:02:52;3.45;;;2.92;;
40555;SDS011;26250;45.422;11.100;2022-08-21T07:05:20;6.95;;;3.03;;
40555;SDS011;26250;45.422;11.100;2022-08-21T07:07:47;9.38;;;2.60;;
40555;SDS011;26250;45.422;11.100;2022-08-21T07:10:14;12.55;;;2.75;;
40555;SDS011;26250;45.422;11.100;2022-08-21T07:12:48;12.63;;;3.33;;
40555;SDS011;26250;45.422;11.100;2022-08-21T07:15:16;10.85;;;3.03;;
40555;SDS011;26250;45.422;11.100;2022-08-21T07:17:43;5.63;;;2.00;;
40555;SDS011;26250;45.422;11.100;2022-08-21T07:20:10;8.18;;;2.22;;
40555;SDS011;26250;45.422;11.100;2022-08-21T07:22:38;3.60;;;2.40;;
40555;SDS011;26250;45.422;11.100;2022-08-21T07:25:07;6.43;;;2.22;;
40555;SDS011;26250;45.422;11.100;2022-08-21T07:27:34;5.82;;;2.03;;
40555;SDS011;26250;45.422;11.100;2022-08-21T07:30:02;2.97;;;2.22;;
40555;SDS011;26250;45.422;11.100;2022-08-21T07:32:30;11.55;;;2.20;;
40555;SDS011;26250;45.422;11.100;2022-08-21T07:34:56;6.38;;;2.25;;
40555;SDS011;26250;45.422;11.100;2022-08-21T07:37:23;2.53;;;2.03;;
40555;SDS011;26250;45.422;11.100;2022-08-21T07:39:51;12.20;;;2.45;;
40555;SDS011;26250;45.422;11.100;2022-08-21T07:42:18;5.57;;;2.60;;
40555;SDS011;26250;45.422;11.100;2022-08-21T07:44:45;5.22;;;1.88;;
40555;SDS011;26250;45.422;11.100;2022-08-21T07:47:14;2.13;;;1.58;;
40555;SDS011;26250;45.422;11.100;2022-08-21T07:50:01;5.85;;;1.40;;
40555;SDS011;26250;45.422;11.100;2022-08-21T07:52:30;2.75;;;1.20;;
40555;SDS011;26250;45.422;11.100;2022-08-21T07:54:58;2.22;;;1.20;;
40555;SDS011;26250;45.422;11.100;2022-08-21T07:57:31;3.65;;;1.35;;
40555;SDS011;26250;45.422;11.100;2022-08-21T07:59:58;2.38;;;1.50;;
40555;SDS011;26250;45.422;11.100;2022-08-21T08:02:29;2.63;;;0.95;;
40555;SDS011;26250;45.422;11.100;2022-08-21T08:05:00;1.27;;;1.15;;
40555;SDS011;26250;45.422;11.100;2022-08-21T08:07:29;8.23;;;1.42;;
40555;SDS011;26250;45.422;11.100;2022-08-21T08:09:56;6.50;;;1.27;;
40555;SDS011;26250;45.422;11.100;2022-08-21T08:12:24;4.97;;;1.20;;
40555;SDS011;26250;45.422;11.100;2022-08-21T08:14:56;1.20;;;1.10;;
40555;SDS011;26250;45.422;11.100;2022-08-21T08:17:24;4.45;;;1.92;;
40555;SDS011;26250;45.422;11.100;2022-08-21T08:19:51;4.10;;;1.45;;
40555;SDS011;26250;45.422;11.100;2022-08-21T08:22:19;2.38;;;1.30;;
40555;SDS011;26250;45.422;11.100;2022-08-21T08:24:50;2.90;;;1.20;;
40555;SDS011;26250;45.422;11.100;2022-08-21T08:27:18;1.73;;;0.95;;
40555;SDS011;26250;45.422;11.100;2022-08-21T08:29:46;0.93;;;0.93;;
40555;SDS011;26250;45.422;11.100;2022-08-21T08:32:14;1.25;;;1.15;;
40555;SDS011;26250;45.422;11.100;2022-08-21T08:34:41;2.53;;;1.25;;
40555;SDS011;26250;45.422;11.100;2022-08-21T08:37:08;2.65;;;1.42;;
40555;SDS011;26250;45.422;11.100;2022-08-21T08:39:36;3.00;;;0.98;;
40555;SDS011;26250;45.422;11.100;2022-08-21T08:45:07;3.03;;;1.40;;
40555;SDS011;26250;45.422;11.100;2022-08-21T08:47:38;1.30;;;1.20;;
40555;SDS011;26250;45.422;11.100;2022-08-21T08:50:18;1.50;;;1.40;;
40555;SDS011;26250;45.422;11.100;2022-08-21T08:53:06;9.20;;;1.45;;
40555;SDS011;26250;45.422;11.100;2022-08-21T08:55:37;1.88;;;1.20;;
40555;SDS011;26250;45.422;11.100;2022-08-21T08:58:07;3.53;;;1.73;;
40555;SDS011;26250;45.422;11.100;2022-08-21T09:00:43;2.08;;;1.23;;
40555;SDS011;26250;45.422;11.100;2022-08-21T09:03:13;3.22;;;1.50;;
40555;SDS011;26250;45.422;11.100;2022-08-21T09:05:46;1.05;;;0.95;;
40555;SDS011;26250;45.422;11.100;2022-08-21T09:14:12;2.05;;;1.50;;
40555;SDS011;26250;45.422;11.100;2022-08-21T09:25:21;1.33;;;1.20;;
40555;SDS011;26250;45.422;11.100;2022-08-21T09:27:51;2.58;;;1.50;;
40555;SDS011;26250;45.422;11.100;2022-08-21T09:30:19;3.92;;;1.33;;
40555;SDS011;26250;45.422;11.100;2022-08-21T09:32:52;2.60;;;1.90;;
40555;SDS011;26250;45.422;11.100;2022-08-21T09:35:20;2.80;;;1.13;;
40555;SDS011;26250;45.422;11.100;2022-08-21T09:43:20;2.40;;;0.93;;
40555;SDS011;26250;45.422;11.100;2022-08-21T09:45:49;1.48;;;1.02;;
40555;SDS011;26250;45.422;11.100;2022-08-21T09:48:38;8.50;;;1.42;;
40555;SDS011;26250;45.422;11.100;2022-08-21T09:51:23;1.90;;;0.87;;
40555;SDS011;26250;45.422;11.100;2022-08-21T09:53:53;2.33;;;1.23;;
40555;SDS011;26250;45.422;11.100;2022-08-21T09:59:15;6.40;;;0.98;;
40555;SDS011;26250;45.422;11.100;2022-08-21T10:01:47;3.80;;;1.55;;
40555;SDS011;26250;45.422;11.100;2022-08-21T10:04:18;7.40;;;1.52;;
40555;SDS011;26250;45.422;11.100;2022-08-21T10:06:47;2.10;;;1.55;;
40555;SDS011;26250;45.422;11.100;2022-08-21T10:09:17;3.70;;;1.30;;
40555;SDS011;26250;45.422;11.100;2022-08-21T10:17:19;6.28;;;1.75;;
40555;SDS011;26250;45.422;11.100;2022-08-21T10:20:04;1.38;;;1.17;;
40555;SDS011;26250;45.422;11.100;2022-08-21T10:36:21;4.67;;;2.00;;
40555;SDS011;26250;45.422;11.100;2022-08-21T10:39:18;2.47;;;1.42;;
40555;SDS011;26250;45.422;11.100;2022-08-21T10:42:20;7.00;;;1.30;;
40555;SDS011;26250;45.422;11.100;2022-08-21T10:44:57;1.70;;;1.38;;
40555;SDS011;26250;45.422;11.100;2022-08-21T10:48:04;2.22;;;1.23;;
40555;SDS011;26250;45.422;11.100;2022-08-21T10:50:42;2.65;;;1.30;;
40555;SDS011;26250;45.422;11.100;2022-08-21T10:53:30;1.38;;;0.90;;
40555;SDS011;26250;45.422;11.100;2022-08-21T10:56:18;1.85;;;1.05;;
40555;SDS011;26250;45.422;11.100;2022-08-21T10:58:56;2.27;;;1.50;;
40555;SDS011;26250;45.422;11.100;2022-08-21T11:01:55;1.10;;;0.98;;
40555;SDS011;26250;45.422;11.100;2022-08-21T11:04:37;3.92;;;1.30;;
40555;SDS011;26250;45.422;11.100;2022-08-21T11:07:30;3.28;;;1.13;;
40555;SDS011;26250;45.422;11.100;2022-08-21T11:10:05;1.85;;;1.10;;
40555;SDS011;26250;45.422;11.100;2022-08-21T11:12:50;3.72;;;1.17;;
40555;SDS011;26250;45.422;11.100;2022-08-21T11:18:15;8.80;;;1.33;;
40555;SDS011;26250;45.422;11.100;2022-08-21T11:29:10;1.27;;;0.90;;
40555;SDS011;26250;45.422;11.100;2022-08-21T11:43:21;0.55;;;0.55;;
40555;SDS011;26250;45.422;11.100;2022-08-21T11:46:14;2.15;;;0.68;;
40555;SDS011;26250;45.422;11.100;2022-08-21T11:48:49;1.08;;;0.98;;
40555;SDS011;26250;45.422;11.100;2022-08-21T11:56:59;1.25;;;0.90;;
40555;SDS011;26250;45.422;11.100;2022-08-21T12:02:12;1.35;;;1.10;;
40555;SDS011;26250;45.422;11.100;2022-08-21T12:04:46;2.63;;;1.15;;
40555;SDS011;26250;45.422;11.100;2022-08-21T12:07:30;0.75;;;0.75;;
40555;SDS011;26250;45.422;11.100;2022-08-21T12:10:04;1.38;;;0.93;;
40555;SDS011;26250;45.422;11.100;2022-08-21T12:12:34;1.85;;;1.17;;
40555;SDS011;26250;45.422;11.100;2022-08-21T12:25:39;2.88;;;1.00;;
40555;SDS011;26250;45.422;11.100;2022-08-21T12:28:10;1.45;;;0.82;;
40555;SDS011;26250;45.422;11.100;2022-08-21T12:30:40;6.80;;;1.10;;
40555;SDS011;26250;45.422;11.100;2022-08-21T12:36:05;3.42;;;1.33;;
40555;SDS011;26250;45.422;11.100;2022-08-21T12:38:48;2.63;;;1.00;;
40555;SDS011;26250;45.422;11.100;2022-08-21T12:41:30;1.40;;;0.90;;
40555;SDS011;26250;45.422;11.100;2022-08-21T12:44:02;0.47;;;0.47;;
40555;SDS011;26250;45.422;11.100;2022-08-21T12:46:46;2.92;;;0.68;;
40555;SDS011;26250;45.422;11.100;2022-08-21T12:52:08;0.93;;;0.85;;
40555;SDS011;26250;45.422;11.100;2022-08-21T12:54:47;1.25;;;0.88;;
40555;SDS011;26250;45.422;11.100;2022-08-21T12:57:25;0.50;;;0.50;;
40555;SDS011;26250;45.422;11.100;2022-08-21T12:59:58;1.58;;;0.80;;
40555;SDS011;26250;45.422;11.100;2022-08-21T13:02:31;1.67;;;0.80;;
40555;SDS011;26250;45.422;11.100;2022-08-21T13:05:04;1.77;;;0.68;;
40555;SDS011;26250;45.422;11.100;2022-08-21T13:07:34;1.95;;;0.70;;
40555;SDS011;26250;45.422;11.100;2022-08-21T13:10:05;1.10;;;0.65;;
40555;SDS011;26250;45.422;11.100;2022-08-21T13:12:40;0.85;;;0.50;;
40555;SDS011;26250;45.422;11.100;2022-08-21T13:15:08;0.88;;;0.63;;
40555;SDS011;26250;45.422;11.100;2022-08-21T13:17:38;3.20;;;0.80;;
40555;SDS011;26250;45.422;11.100;2022-08-21T13:20:09;1.92;;;1.10;;
40555;SDS011;26250;45.422;11.100;2022-08-21T13:22:45;0.55;;;0.52;;
40555;SDS011;26250;45.422;11.100;2022-08-21T13:25:13;1.25;;;1.00;;
40555;SDS011;26250;45.422;11.100;2022-08-21T13:27:43;2.72;;;0.77;;
40555;SDS011;26250;45.422;11.100;2022-08-21T13:30:22;1.15;;;0.90;;
40555;SDS011;26250;45.422;11.100;2022-08-21T13:32:50;0.70;;;0.63;;
40555;SDS011;26250;45.422;11.100;2022-08-21T13:35:46;1.48;;;0.90;;
40555;SDS011;26250;45.422;11.100;2022-08-21T13:38:17;0.55;;;0.55;;
40555;SDS011;26250;45.422;11.100;2022-08-21T13:40:55;0.70;;;0.70;;
40555;SDS011;26250;45.422;11.100;2022-08-21T13:43:28;0.80;;;0.73;;
40555;SDS011;26250;45.422;11.100;2022-08-21T13:45:59;1.13;;;1.02;;
40555;SDS011;26250;45.422;11.100;2022-08-21T13:48:28;0.65;;;0.60;;
40555;SDS011;26250;45.422;11.100;2022-08-21T13:50:59;7.13;;;0.88;;
40555;SDS011;26250;45.422;11.100;2022-08-21T13:53:31;0.75;;;0.75;;
40555;SDS011;26250;45.422;11.100;2022-08-21T13:56:29;2.40;;;0.80;;
40555;SDS011;26250;45.422;11.100;2022-08-21T13:58:59;0.93;;;0.50;;
40555;SDS011;26250;45.422;11.100;2022-08-21T14:01:38;7.63;;;0.98;;
40555;SDS011;26250;45.422;11.100;2022-08-21T14:04:20;1.30;;;0.60;;
40555;SDS011;26250;45.422;11.100;2022-08-21T14:06:50;2.35;;;1.40;;
40555;SDS011;26250;45.422;11.100;2022-08-21T14:11:58;1.25;;;0.80;;
40555;SDS011;26250;45.422;11.100;2022-08-21T14:14:48;1.60;;;0.80;;
40555;SDS011;26250;45.422;11.100;2022-08-21T14:17:25;4.07;;;0.73;;
40555;SDS011;26250;45.422;11.100;2022-08-21T14:19:59;0.95;;;0.70;;
40555;SDS011;26250;45.422;11.100;2022-08-21T14:25:11;1.95;;;0.75;;
40555;SDS011;26250;45.422;11.100;2022-08-21T14:30:42;0.63;;;0.60;;
40555;SDS011;26250;45.422;11.100;2022-08-21T14:33:13;1.75;;;0.95;;
40555;SDS011;26250;45.422;11.100;2022-08-21T14:35:44;1.63;;;0.77;;
40555;SDS011;26250;45.422;11.100;2022-08-21T14:38:13;2.47;;;0.80;;
40555;SDS011;26250;45.422;11.100;2022-08-21T14:40:47;1.98;;;1.17;;
40555;SDS011;26250;45.422;11.100;2022-08-21T14:43:17;2.60;;;1.00;;
40555;SDS011;26250;45.422;11.100;2022-08-21T14:45:45;1.67;;;0.90;;
40555;SDS011;26250;45.422;11.100;2022-08-21T14:48:13;0.60;;;0.50;;
40555;SDS011;26250;45.422;11.100;2022-08-21T14:50:40;3.97;;;0.80;;
40555;SDS011;26250;45.422;11.100;2022-08-21T14:53:07;3.60;;;0.90;;
40555;SDS011;26250;45.422;11.100;2022-08-21T14:55:37;2.72;;;1.10;;
40555;SDS011;26250;45.422;11.100;2022-08-21T14:58:23;2.58;;;1.00;;
40555;SDS011;26250;45.422;11.100;2022-08-21T15:00:51;1.77;;;0.80;;
40555;SDS011;26250;45.422;11.100;2022-08-21T15:03:20;1.65;;;1.00;;
40555;SDS011;26250;45.422;11.100;2022-08-21T15:05:48;2.13;;;0.88;;
40555;SDS011;26250;45.422;11.100;2022-08-21T15:08:16;2.42;;;0.68;;
40555;SDS011;26250;45.422;11.100;2022-08-21T15:10:44;1.92;;;1.05;;
40555;SDS011;26250;45.422;11.100;2022-08-21T15:13:31;0.75;;;0.75;;
40555;SDS011;26250;45.422;11.100;2022-08-21T15:15:59;1.50;;;0.80;;
40555;SDS011;26250;45.422;11.100;2022-08-21T15:18:27;1.95;;;1.05;;
40555;SDS011;26250;45.422;11.100;2022-08-21T15:20:55;4.43;;;1.30;;
40555;SDS011;26250;45.422;11.100;2022-08-21T15:23:23;2.13;;;0.98;;
40555;SDS011;26250;45.422;11.100;2022-08-21T15:25:50;1.00;;;0.90;;
40555;SDS011;26250;45.422;11.100;2022-08-21T15:28:19;2.47;;;1.00;;
40555;SDS011;26250;45.422;11.100;2022-08-21T15:30:47;1.23;;;0.68;;
40555;SDS011;26250;45.422;11.100;2022-08-21T15:33:14;1.25;;;0.90;;
40555;SDS011;26250;45.422;11.100;2022-08-21T15:35:42;0.80;;;0.60;;
40555;SDS011;26250;45.422;11.100;2022-08-21T15:38:09;4.07;;;0.80;;
40555;SDS011;26250;45.422;11.100;2022-08-21T15:40:36;2.50;;;1.25;;
40555;SDS011;26250;45.422;11.100;2022-08-21T15:43:21;1.88;;;0.95;;
40555;SDS011;26250;45.422;11.100;2022-08-21T15:45:57;8.98;;;1.00;;
40555;SDS011;26250;45.422;11.100;2022-08-21T15:48:25;2.45;;;1.02;;
40555;SDS011;26250;45.422;11.100;2022-08-21T15:50:52;4.20;;;1.20;;
40555;SDS011;26250;45.422;11.100;2022-08-21T15:53:19;5.75;;;0.82;;
40555;SDS011;26250;45.422;11.100;2022-08-21T15:55:46;1.77;;;0.95;;
40555;SDS011;26250;45.422;11.100;2022-08-21T15:58:16;1.52;;;1.25;;
40555;SDS011;26250;45.422;11.100;2022-08-21T16:00:43;1.70;;;1.00;;
40555;SDS011;26250;45.422;11.100;2022-08-21T16:03:11;2.83;;;1.00;;
40555;SDS011;26250;45.422;11.100;2022-08-21T16:05:43;7.72;;;1.05;;
40555;SDS011;26250;45.422;11.100;2022-08-21T16:08:11;5.35;;;0.57;;
40555;SDS011;26250;45.422;11.100;2022-08-21T16:10:38;3.08;;;1.10;;
40555;SDS011;26250;45.422;11.100;2022-08-21T16:13:07;0.90;;;0.80;;
40555;SDS011;26250;45.422;11.100;2022-08-21T16:15:41;3.03;;;1.10;;
40555;SDS011;26250;45.422;11.100;2022-08-21T16:18:08;2.17;;;1.17;;
40555;SDS011;26250;45.422;11.100;2022-08-21T16:20:36;1.00;;;0.75;;
40555;SDS011;26250;45.422;11.100;2022-08-21T16:23:03;0.45;;;0.45;;
40555;SDS011;26250;45.422;11.100;2022-08-21T16:25:30;1.00;;;0.80;;
40555;SDS011;26250;45.422;11.100;2022-08-21T16:28:06;0.77;;;0.77;;
40555;SDS011;26250;45.422;11.100;2022-08-21T16:30:38;3.17;;;1.48;;
40555;SDS011;26250;45.422;11.100;2022-08-21T16:33:05;1.15;;;1.00;;
40555;SDS011;26250;45.422;11.100;2022-08-21T16:35:33;0.50;;;0.50;;
40555;SDS011;26250;45.422;11.100;2022-08-21T16:38:00;1.05;;;0.93;;